Time;durP1;ratioP1;P1;durP2;ratioP2;P2;SDS_P1;SDS_P2;PMS_P1;PMS_P2;Temp;Humidity;BMP_temperature;BMP_pressure;BME280_temperature;BME280_humidity;BME280_pressure;Samples;Min_cycle;Max_cycle;Signal;HPM_P1;HPM_P2
2022/03/09 00:01:15;;;;;;;24.50;15.82;;;;;;;0.76;57.01;102082.78;5033170;28;20034;-55
2022/03/09 00:03:40;;;;;;;22.17;14.25;;;;;;;0.71;57.10;102082.59;5033024;28;20029;-54
2022/03/09 00:06:06;;;;;;;23.90;14.73;;;;;;;0.69;57.01;102086.56;5032854;28;20103;-55
2022/03/09 00:08:31;;;;;;;24.38;15.32;;;;;;;0.64;57.46;102087.19;5032753;28;20520;-54
2022/03/09 00:10:57;;;;;;;22.73;14.50;;;;;;;0.64;57.63;102091.78;5031920;28;20412;-54
2022/03/09 00:13:22;;;;;;;24.05;15.70;;;;;;;0.62;57.63;102101.00;5032971;28;20029;-55
2022/03/09 00:15:47;;;;;;;24.00;15.15;;;;;;;0.62;57.21;102095.56;5032945;28;20022;-55
2022/03/09 00:18:13;;;;;;;23.13;14.93;;;;;;;0.61;57.79;102090.31;5032820;28;20055;-55
2022/03/09 00:20:38;;;;;;;22.27;14.43;;;;;;;0.59;57.93;102092.41;5032411;28;20469;-53
2022/03/09 00:23:03;;;;;;;23.42;15.13;;;;;;;0.57;57.89;102099.94;5032561;28;20032;-55
2022/03/09 00:25:28;;;;;;;24.00;14.68;;;;;;;0.55;57.85;102100.16;5032019;28;20033;-52
2022/03/09 00:27:54;;;;;;;24.45;14.95;;;;;;;0.54;58.20;102098.47;5032652;28;20033;-55
2022/03/09 00:30:19;;;;;;;23.88;15.00;;;;;;;0.56;57.62;102101.03;5032907;28;20021;-53
2022/03/09 00:32:44;;;;;;;23.77;15.70;;;;;;;0.53;58.25;102101.44;5031910;28;20037;-56
2022/03/09 00:35:10;;;;;;;26.00;16.05;;;;;;;0.49;58.22;102095.56;5032952;28;20029;-56
2022/03/09 00:37:36;;;;;;;23.17;16.15;;;;;;;0.45;58.25;102091.56;5032498;28;20029;-51
2022/03/09 00:40:02;;;;;;;23.73;15.60;;;;;;;0.45;58.30;102097.00;5032831;28;20480;-55
2022/03/09 00:42:28;;;;;;;24.60;16.05;;;;;;;0.43;58.33;102094.50;5032654;28;20029;-55
2022/03/09 00:44:53;;;;;;;22.95;14.73;;;;;;;0.41;58.63;102090.31;5032120;28;20076;-55
2022/03/09 00:47:18;;;;;;;25.63;15.32;;;;;;;0.37;58.52;102089.03;5032568;28;20493;-56
2022/03/09 00:49:43;;;;;;;21.77;14.45;;;;;;;0.33;59.01;102095.97;5032545;28;20026;-55
2022/03/09 00:52:08;;;;;;;23.42;14.27;;;;;;;0.34;58.71;102090.28;5032424;28;20470;-56
2022/03/09 00:54:34;;;;;;;22.42;14.75;;;;;;;0.31;58.93;102085.25;5032462;28;20044;-56
2022/03/09 00:56:59;;;;;;;23.73;14.50;;;;;;;0.30;59.05;102081.72;5032293;28;20029;-55
2022/03/09 00:59:25;;;;;;;23.95;14.50;;;;;;;0.32;58.46;102088.84;5032257;28;20030;-55
2022/03/09 01:01:50;;;;;;;23.58;14.75;;;;;;;0.33;58.49;102090.50;5031501;28;20488;-56
2022/03/09 01:04:15;;;;;;;21.83;13.77;;;;;;;0.32;58.45;102095.09;5032172;28;20083;-55
2022/03/09 01:06:40;;;;;;;23.15;14.73;;;;;;;0.31;58.36;102093.44;5032751;28;20030;-54
2022/03/09 01:09:06;;;;;;;23.00;14.32;;;;;;;0.30;58.26;102094.47;5032422;28;20112;-55
2022/03/09 01:11:31;;;;;;;23.70;15.15;;;;;;;0.27;58.44;102092.19;5032478;28;20049;-54
2022/03/09 01:13:57;;;;;;;24.02;15.20;;;;;;;0.26;58.62;102102.22;5032015;28;20032;-55
2022/03/09 01:16:22;;;;;;;23.58;14.82;;;;;;;0.23;58.67;102097.19;5032308;28;20437;-54
2022/03/09 01:18:47;;;;;;;24.63;14.73;;;;;;;0.22;58.66;102095.53;5032663;28;20029;-54
2022/03/09 01:21:13;;;;;;;23.60;15.10;;;;;;;0.21;58.90;102087.53;5032662;28;20487;-55
2022/03/09 01:23:38;;;;;;;24.40;14.63;;;;;;;0.19;58.81;102090.47;5031770;28;20042;-55
2022/03/09 01:26:03;;;;;;;23.30;14.77;;;;;;;0.15;58.90;102089.19;5032276;28;20079;-55
2022/03/09 01:28:29;;;;;;;24.50;14.10;;;;;;;0.14;59.04;102087.53;5031803;28;20030;-51
2022/03/09 01:30:54;;;;;;;23.05;14.63;;;;;;;0.13;59.14;102089.41;5031815;28;20443;-54
2022/03/09 01:33:19;;;;;;;25.20;15.10;;;;;;;0.12;59.21;102090.44;5033660;28;20026;-54
2022/03/09 01:35:44;;;;;;;23.80;15.25;;;;;;;0.13;59.13;102085.88;5035624;28;20025;-53
2022/03/09 01:38:10;;;;;;;24.67;15.60;;;;;;;0.11;59.22;102091.50;5035964;28;20366;-53
2022/03/09 01:40:35;;;;;;;23.25;15.52;;;;;;;0.06;59.48;102082.25;5036049;28;20025;-56
2022/03/09 01:43:00;;;;;;;25.42;16.90;;;;;;;0.02;59.59;102081.84;5035872;28;20109;-55
2022/03/09 01:45:26;;;;;;;26.95;15.52;;;;;;;-0.04;59.51;102086.22;5035565;28;20033;-55
2022/03/09 01:47:51;;;;;;;23.55;15.93;;;;;;;-0.06;59.69;102082.03;5036007;28;20021;-55
2022/03/09 01:50:16;;;;;;;24.30;15.65;;;;;;;-0.08;60.09;102075.94;5034773;28;20449;-55
2022/03/09 01:52:42;;;;;;;24.13;15.02;;;;;;;-0.10;59.61;102080.78;5035092;28;20033;-54
2022/03/09 01:55:08;;;;;;;24.45;15.93;;;;;;;-0.14;59.81;102082.22;5035395;28;20035;-54
2022/03/09 01:57:34;;;;;;;25.70;14.82;;;;;;;-0.17;60.21;102084.28;5035151;28;20033;-55
2022/03/09 02:00:00;;;;;;;25.38;16.08;;;;;;;-0.18;60.38;102077.16;5035403;28;20033;-55
2022/03/09 02:02:26;;;;;;;24.75;16.20;;;;;;;-0.19;59.92;102080.09;5033865;28;20385;-53
2022/03/09 02:04:52;;;;;;;24.77;16.38;;;;;;;-0.19;60.50;102075.50;5034968;28;20018;-54
2022/03/09 02:07:17;;;;;;;23.85;15.27;;;;;;;-0.20;60.56;102071.13;5035145;28;20041;-55
2022/03/09 02:09:45;;;;;;;25.00;15.55;;;;;;;-0.20;60.83;102082.00;5034222;28;20021;-54
2022/03/09 02:12:15;;;;;;;24.70;15.82;;;;;;;-0.24;60.91;102069.00;5035255;28;20049;-56
2022/03/09 02:14:46;;;;;;;25.75;16.35;;;;;;;-0.27;60.30;102069.41;5035314;28;20032;-54
2022/03/09 02:17:17;;;;;;;24.88;15.02;;;;;;;-0.32;60.82;102075.47;5035095;28;20030;-54
2022/03/09 02:19:45;;;;;;;25.55;15.68;;;;;;;-0.35;61.11;102073.13;5035021;28;20060;-54
2022/03/09 02:22:23;;;;;;;26.17;16.25;;;;;;;-0.38;61.45;102081.72;5034529;28;20030;-53
2022/03/09 02:24:50;;;;;;;25.58;16.63;;;;;;;-0.43;61.44;102081.47;5035137;28;20033;-54
2022/03/09 02:27:16;;;;;;;24.90;15.27;;;;;;;-0.44;61.57;102077.06;5034892;28;20029;-55
2022/03/09 02:29:42;;;;;;;26.70;17.02;;;;;;;-0.46;61.28;102074.56;5035212;28;20068;-54
2022/03/09 02:32:07;;;;;;;24.42;15.02;;;;;;;-0.45;61.82;102078.09;5034961;28;20076;-53
2022/03/09 02:34:33;;;;;;;25.17;15.90;;;;;;;-0.48;61.51;102066.63;5035004;28;20125;-53
2022/03/09 02:36:59;;;;;;;26.08;16.20;;;;;;;-0.54;61.42;102075.56;5034903;28;20030;-54
2022/03/09 02:39:25;;;;;;;25.52;16.25;;;;;;;-0.57;61.74;102072.41;5034768;28;20040;-53
2022/03/09 02:41:50;;;;;;;23.10;15.32;;;;;;;-0.64;61.81;102067.78;5034885;28;20032;-55
2022/03/09 02:44:15;;;;;;;25.92;16.80;;;;;;;-0.66;62.31;102060.88;5034273;28;20030;-54
2022/03/09 02:46:41;;;;;;;24.58;15.80;;;;;;;-0.68;62.14;102065.66;5034054;28;20051;-56
2022/03/09 02:49:06;;;;;;;25.25;16.30;;;;;;;-0.71;62.17;102064.16;5034322;28;20037;-55
2022/03/09 02:51:32;;;;;;;25.45;16.30;;;;;;;-0.72;61.98;102057.09;5034043;28;20029;-52
2022/03/09 02:53:57;;;;;;;24.95;15.90;;;;;;;-0.73;62.42;102058.13;5034686;28;20056;-56
2022/03/09 02:56:23;;;;;;;24.23;16.45;;;;;;;-0.72;62.55;102059.81;5034136;28;20021;-53
2022/03/09 02:58:48;;;;;;;26.27;16.90;;;;;;;-0.74;62.52;102050.16;5033838;28;20456;-54
2022/03/09 03:01:14;;;;;;;24.25;16.33;;;;;;;-0.73;62.19;102054.53;5034518;28;20021;-56
2022/03/09 03:03:41;;;;;;;25.70;15.73;;;;;;;-0.76;62.26;102049.53;5033992;28;20051;-54
2022/03/09 03:06:07;;;;;;;25.45;16.33;;;;;;;-0.76;62.85;102052.25;5034445;28;20025;-55
2022/03/09 03:08:33;;;;;;;25.67;17.20;;;;;;;-0.80;62.70;102055.34;5034159;28;20486;-54
2022/03/09 03:10:58;;;;;;;26.33;17.00;;;;;;;-0.80;62.62;102046.34;5034107;28;20045;-52
2022/03/09 03:13:24;;;;;;;24.00;16.85;;;;;;;-0.83;62.47;102044.06;5033575;28;20034;-49
2022/03/09 03:15:49;;;;;;;25.30;16.85;;;;;;;-0.84;62.58;102054.06;5034260;28;20032;-52
2022/03/09 03:18:14;;;;;;;25.75;17.27;;;;;;;-0.86;62.64;102053.44;5034059;28;20068;-55
2022/03/09 03:20:40;;;;;;;25.65;15.85;;;;;;;-0.85;62.31;102059.72;5033892;28;20023;-54
2022/03/09 03:23:05;;;;;;;26.17;16.38;;;;;;;-0.86;62.30;102060.75;5034190;28;20099;-55
2022/03/09 03:25:30;;;;;;;24.92;16.75;;;;;;;-0.89;62.47;102059.28;5033737;28;20029;-53
2022/03/09 03:27:55;;;;;;;24.55;15.70;;;;;;;-0.87;62.22;102064.50;5033730;28;20032;-54
2022/03/09 03:30:21;;;;;;;25.50;17.02;;;;;;;-0.89;62.23;102062.00;5033933;28;20473;-54
2022/03/09 03:32:46;;;;;;;25.45;14.55;;;;;;;-0.90;62.52;102056.75;5033906;28;20072;-53
2022/03/09 03:35:11;;;;;;;28.38;15.20;;;;;;;-0.93;62.43;102054.44;5033544;28;20037;-52
2022/03/09 03:37:36;;;;;;;25.73;17.35;;;;;;;-0.95;62.79;102055.47;5032869;28;20461;-55
2022/03/09 03:40:02;;;;;;;25.13;16.88;;;;;;;-0.98;63.17;102061.28;5033479;28;20042;-54
2022/03/09 03:42:28;;;;;;;26.30;17.08;;;;;;;-1.00;62.69;102059.81;5033734;28;20021;-54
2022/03/09 03:44:53;;;;;;;26.08;16.38;;;;;;;-1.04;63.15;102055.84;5033347;28;20159;-55
2022/03/09 03:47:18;;;;;;;25.77;16.42;;;;;;;-1.04;62.77;102053.13;5033038;28;20056;-55
2022/03/09 03:49:43;;;;;;;23.73;15.15;;;;;;;-1.05;63.29;102054.16;5033352;28;20139;-55
2022/03/09 03:52:09;;;;;;;25.38;17.05;;;;;;;-1.11;62.97;102045.75;5033449;28;20381;-55
2022/03/09 03:54:34;;;;;;;26.65;16.55;;;;;;;-1.13;63.04;102057.84;5033177;28;20160;-55
2022/03/09 03:56:59;;;;;;;30.10;17.63;;;;;;;-1.15;63.22;102058.06;5032819;28;20496;-55
2022/03/09 03:59:24;;;;;;;24.77;16.40;;;;;;;-1.18;63.16;102053.03;5033155;28;20029;-56
2022/03/09 04:01:50;;;;;;;25.50;16.90;;;;;;;-1.21;63.07;102056.13;5032919;28;20040;-56
2022/03/09 04:04:15;;;;;;;24.20;16.20;;;;;;;-1.25;63.41;102054.84;5033195;28;20029;-55
2022/03/09 04:06:40;;;;;;;27.55;16.20;;;;;;;-1.27;63.20;102054.19;5033072;28;20084;-56
2022/03/09 04:09:05;;;;;;;25.08;16.33;;;;;;;-1.28;63.80;102057.94;5032631;28;20028;-53
2022/03/09 04:11:31;;;;;;;27.05;16.00;;;;;;;-1.31;63.49;102059.19;5033178;28;20095;-55
2022/03/09 04:13:56;;;;;;;26.50;16.40;;;;;;;-1.32;63.99;102059.41;5031620;28;20449;-54
2022/03/09 04:16:22;;;;;;;25.30;16.88;;;;;;;-1.37;63.78;102054.53;5033271;28;20046;-56
2022/03/09 04:18:48;;;;;;;23.70;16.00;;;;;;;-1.40;64.05;102054.94;5032432;28;20039;-54
2022/03/09 04:21:13;;;;;;;27.60;17.10;;;;;;;-1.42;64.49;102062.44;5033115;28;20083;-54
2022/03/09 04:23:38;;;;;;;26.52;16.40;;;;;;;-1.44;64.45;102059.06;5031572;28;20061;-54
2022/03/09 04:26:06;;;;;;;27.98;17.23;;;;;;;-1.47;64.23;102064.91;5032767;28;20119;-52
2022/03/09 04:28:32;;;;;;;24.67;15.52;;;;;;;-1.48;63.86;102061.34;5031738;28;20078;-51
2022/03/09 04:30:57;;;;;;;27.13;16.38;;;;;;;-1.49;64.61;102051.50;5032785;28;20033;-53
2022/03/09 04:33:22;;;;;;;24.00;15.38;;;;;;;-1.53;64.62;102052.94;5032935;28;20200;-52
2022/03/09 04:35:48;;;;;;;24.00;15.55;;;;;;;-1.55;64.62;102051.44;5032813;28;20033;-52
2022/03/09 04:38:13;;;;;;;24.08;14.70;;;;;;;-1.58;64.74;102056.25;5032380;28;20446;-55
2022/03/09 04:40:38;;;;;;;24.25;14.10;;;;;;;-1.60;64.13;102050.19;5032907;28;20026;-54
2022/03/09 04:43:04;;;;;;;23.90;14.88;;;;;;;-1.60;64.32;102047.47;5032808;28;20037;-55
2022/03/09 04:45:29;;;;;;;23.23;14.40;;;;;;;-1.62;63.94;102048.69;5032801;28;20037;-58
2022/03/09 04:47:54;;;;;;;25.42;15.75;;;;;;;-1.64;64.43;102051.59;5032737;28;20450;-54
2022/03/09 04:50:19;;;;;;;23.85;14.70;;;;;;;-1.66;64.11;102055.53;5032760;28;20116;-53
2022/03/09 04:52:45;;;;;;;24.55;15.38;;;;;;;-1.67;65.28;102059.28;5032333;28;20033;-54
2022/03/09 04:55:10;;;;;;;24.52;15.38;;;;;;;-1.68;65.01;102061.16;5032506;28;20049;-54
2022/03/09 04:57:37;;;;;;;26.48;16.60;;;;;;;-1.68;64.64;102063.88;5032338;28;20033;-55
2022/03/09 05:00:04;;;;;;;25.00;16.08;;;;;;;-1.69;64.58;102058.63;5032461;28;20029;-54
2022/03/09 05:02:30;;;;;;;24.70;16.77;;;;;;;-1.69;64.68;102055.91;5032812;28;20029;-54
2022/03/09 05:04:55;;;;;;;23.85;15.07;;;;;;;-1.69;64.73;102045.91;5032352;28;20362;-52
2022/03/09 05:07:20;;;;;;;25.45;15.52;;;;;;;-1.69;64.53;102051.34;5034264;28;20104;-52
2022/03/09 05:09:45;;;;;;;23.17;15.30;;;;;;;-1.67;64.17;102053.84;5036206;28;20412;-54
2022/03/09 05:12:11;;;;;;;24.55;16.10;;;;;;;-1.66;64.27;102055.53;5034439;28;20053;-54
2022/03/09 05:14:36;;;;;;;25.05;15.05;;;;;;;-1.68;64.59;102063.88;5035120;28;20037;-55
2022/03/09 05:17:01;;;;;;;27.38;15.55;;;;;;;-1.68;64.60;102055.75;5036399;28;20469;-54
2022/03/09 05:19:26;;;;;;;24.70;15.95;;;;;;;-1.69;64.31;102047.78;5036241;28;20025;-55
2022/03/09 05:21:52;;;;;;;28.15;15.52;;;;;;;-1.71;64.72;102058.00;5036056;28;20058;-54
2022/03/09 05:24:17;;;;;;;26.33;15.32;;;;;;;-1.71;64.66;102060.72;5036214;28;20033;-53
2022/03/09 05:26:46;;;;;;;25.88;15.70;;;;;;;-1.73;64.82;102059.03;5035905;28;20061;-53
2022/03/09 05:29:11;;;;;;;26.23;16.25;;;;;;;-1.73;65.04;102060.88;5035905;28;20500;-54
2022/03/09 05:31:37;;;;;;;24.15;15.57;;;;;;;-1.75;65.67;102061.09;5036226;28;20097;-54
2022/03/09 05:34:02;;;;;;;26.85;16.65;;;;;;;-1.77;64.64;102065.88;5035537;28;20025;-53
2022/03/09 05:36:27;;;;;;;25.23;15.65;;;;;;;-1.79;65.14;102067.09;5035215;28;20030;-52
2022/03/09 05:38:52;;;;;;;25.67;15.65;;;;;;;-1.81;65.10;102066.44;5035678;28;20087;-54
2022/03/09 05:41:21;;;;;;;27.23;15.02;;;;;;;-1.82;64.97;102064.75;5035573;28;20115;-53
2022/03/09 05:43:46;;;;;;;22.50;14.88;;;;;;;-1.82;65.15;102070.19;5036065;28;20097;-54
2022/03/09 05:46:12;;;;;;;24.73;15.60;;;;;;;-1.85;65.27;102074.13;5035333;28;20034;-53
2022/03/09 05:48:37;;;;;;;24.70;15.50;;;;;;;-1.86;64.70;102077.06;5033946;28;20496;-53
2022/03/09 05:51:02;;;;;;;23.55;15.27;;;;;;;-1.90;64.82;102082.84;5035374;28;20022;-55
2022/03/09 05:53:28;;;;;;;26.00;15.73;;;;;;;-1.91;65.07;102081.16;5035485;28;20017;-54
2022/03/09 05:55:53;;;;;;;25.00;15.00;;;;;;;-1.92;65.62;102079.47;5035588;28;20071;-53
2022/03/09 05:58:18;;;;;;;25.90;14.82;;;;;;;-1.92;65.63;102086.78;5035675;28;20033;-53
2022/03/09 06:00:44;;;;;;;25.00;15.13;;;;;;;-1.95;65.71;102092.59;5035171;28;20032;-53
2022/03/09 06:03:09;;;;;;;24.98;16.33;;;;;;;-1.98;64.96;102087.56;5035430;28;20032;-55
2022/03/09 06:05:34;;;;;;;25.38;16.10;;;;;;;-2.01;66.36;102101.50;5035388;28;20190;-54
2022/03/09 06:07:59;;;;;;;24.67;16.10;;;;;;;-2.01;66.35;102096.09;5035071;28;20036;-55
2022/03/09 06:10:25;;;;;;;24.92;16.17;;;;;;;-2.07;66.31;102098.50;5035082;28;20049;-55
2022/03/09 06:12:51;;;;;;;26.23;16.20;;;;;;;-2.06;65.82;102100.19;5035414;28;20029;-53
2022/03/09 06:15:17;;;;;;;27.08;16.35;;;;;;;-2.08;66.32;102102.25;5035249;28;20095;-54
2022/03/09 06:17:47;;;;;;;27.02;16.70;;;;;;;-2.09;66.10;102102.44;5035311;28;20033;-58
2022/03/09 06:20:18;;;;;;;25.50;15.45;;;;;;;-2.10;66.10;102107.06;5034563;28;20025;-53
2022/03/09 06:22:44;;;;;;;28.30;17.00;;;;;;;-2.11;66.25;102105.38;5034953;28;20057;-55
2022/03/09 06:25:09;;;;;;;24.55;16.25;;;;;;;-2.07;66.43;102109.34;5034963;28;20064;-55
2022/03/09 06:27:47;;;;;;;25.33;15.77;;;;;;;-2.05;66.11;102111.91;5037885;28;20079;-54
2022/03/09 06:30:13;;;;;;;24.15;14.77;;;;;;;-1.99;66.42;102113.84;5034828;28;20026;-53
2022/03/09 06:32:39;;;;;;;25.67;15.80;;;;;;;-1.94;66.49;102118.69;5034523;28;20083;-55
2022/03/09 06:35:06;;;;;;;24.85;14.27;;;;;;;-1.92;66.26;102122.06;5033525;28;20018;-55
2022/03/09 06:37:32;;;;;;;24.58;14.48;;;;;;;-1.89;66.46;102122.50;5034589;28;20041;-53
2022/03/09 06:39:57;;;;;;;27.17;15.82;;;;;;;-1.86;66.70;102120.47;5034784;28;20030;-55
2022/03/09 06:42:24;;;;;;;26.40;15.25;;;;;;;-1.84;66.67;102124.66;5034142;28;20556;-51
2022/03/09 06:44:50;;;;;;;25.90;14.60;;;;;;;-1.80;66.15;102123.25;5034272;28;20461;-54
2022/03/09 06:47:15;;;;;;;25.67;14.75;;;;;;;-1.77;66.28;102127.44;5034631;28;20048;-55
2022/03/09 06:49:40;;;;;;;26.35;15.35;;;;;;;-1.74;66.14;102130.63;5034447;28;20108;-53
2022/03/09 06:52:06;;;;;;;24.45;14.43;;;;;;;-1.70;66.30;102133.78;5034549;28;20033;-53
2022/03/09 06:54:31;;;;;;;24.02;15.18;;;;;;;-1.65;66.50;102135.91;5032723;28;20112;-53
2022/03/09 06:56:57;;;;;;;25.42;15.05;;;;;;;-1.63;66.09;102142.81;5034817;28;20523;-55
2022/03/09 06:59:22;;;;;;;25.20;15.02;;;;;;;-1.56;65.91;102142.91;5034319;28;20033;-55
2022/03/09 07:01:47;;;;;;;25.83;15.43;;;;;;;-1.50;66.29;102146.72;5034363;28;20061;-55
2022/03/09 07:04:12;;;;;;;25.50;15.02;;;;;;;-1.45;65.77;102155.09;5033919;28;20060;-54
2022/03/09 07:06:38;;;;;;;27.33;15.13;;;;;;;-1.38;65.89;102149.75;5034266;28;20044;-52
2022/03/09 07:09:03;;;;;;;25.38;14.88;;;;;;;-1.31;66.19;102151.50;5033791;28;20030;-54
2022/03/09 07:11:28;;;;;;;28.33;16.38;;;;;;;-1.22;65.75;102152.19;5033723;28;20072;-55
2022/03/09 07:13:54;;;;;;;26.17;15.77;;;;;;;-1.11;65.14;102151.66;5033543;28;20048;-56
2022/03/09 07:16:19;;;;;;;26.13;14.05;;;;;;;-1.02;64.98;102165.09;5033768;28;20033;-54
2022/03/09 07:18:44;;;;;;;25.23;15.20;;;;;;;-0.94;64.73;102159.53;5033970;28;20021;-55
2022/03/09 07:21:09;;;;;;;25.60;14.77;;;;;;;-0.86;65.41;102164.00;5033765;28;20030;-53
2022/03/09 07:23:35;;;;;;;26.20;15.45;;;;;;;-0.76;64.80;102167.22;5033423;28;20037;-54
2022/03/09 07:26:00;;;;;;;25.05;15.18;;;;;;;-0.69;64.54;102161.81;5033914;28;20393;-57
2022/03/09 07:28:25;;;;;;;24.48;14.73;;;;;;;-0.62;64.32;102168.13;5033808;28;20079;-55
2022/03/09 07:30:51;;;;;;;24.60;14.43;;;;;;;-0.54;63.99;102159.00;5031570;28;20112;-56
2022/03/09 07:33:17;;;;;;;25.20;14.80;;;;;;;-0.49;64.06;102156.50;5031566;28;20063;-55
2022/03/09 07:35:45;;;;;;;24.65;14.98;;;;;;;-0.39;63.55;102156.16;5031004;28;20100;-56
2022/03/09 07:38:10;;;;;;;24.10;14.43;;;;;;;-0.30;63.22;102149.53;5030282;28;20064;-56
2022/03/09 07:40:35;;;;;;;25.30;14.80;;;;;;;-0.22;62.80;102153.94;5030800;28;20057;-56
2022/03/09 07:43:01;;;;;;;25.20;14.48;;;;;;;-0.13;63.08;102162.78;5031048;28;20041;-55
2022/03/09 07:45:26;;;;;;;24.90;14.27;;;;;;;-0.06;62.82;102159.06;5031277;28;20037;-57
2022/03/09 07:47:51;;;;;;;26.45;15.05;;;;;;;0.03;62.49;102151.53;5029528;28;21157;-56
2022/03/09 07:50:17;;;;;;;24.73;14.60;;;;;;;0.11;62.42;102151.38;5031782;28;20029;-56
2022/03/09 07:52:42;;;;;;;26.73;14.85;;;;;;;0.20;61.91;102156.63;5031138;28;20056;-56
2022/03/09 07:55:08;;;;;;;28.77;15.05;;;;;;;0.29;62.37;102155.41;5030935;28;20079;-56
2022/03/09 07:57:33;;;;;;;25.52;14.95;;;;;;;0.38;61.79;102154.16;5031299;28;20112;-56
2022/03/09 08:00:00;;;;;;;25.65;15.25;;;;;;;0.49;61.57;102158.19;5031001;28;20453;-55
2022/03/09 08:02:25;;;;;;;24.45;14.32;;;;;;;0.58;61.34;102156.94;5030979;28;20452;-57
2022/03/09 08:04:50;;;;;;;25.40;14.35;;;;;;;0.69;61.05;102157.38;5030910;28;20069;-56
2022/03/09 08:07:15;;;;;;;23.85;14.55;;;;;;;0.78;60.93;102159.69;5030792;28;20065;-56
2022/03/09 08:09:41;;;;;;;24.17;14.23;;;;;;;0.85;60.01;102150.69;5030657;28;20022;-55
2022/03/09 08:12:06;;;;;;;29.17;14.80;;;;;;;0.96;60.32;102160.94;5030613;28;20061;-56
2022/03/09 08:14:32;;;;;;;26.80;14.60;;;;;;;1.07;59.82;102165.78;5031002;28;20022;-55
2022/03/09 08:16:57;;;;;;;29.00;16.65;;;;;;;1.15;60.33;102167.47;5030727;28;20095;-56
2022/03/09 08:19:22;;;;;;;33.30;15.50;;;;;;;1.25;59.62;102164.31;5030752;28;20021;-56
2022/03/09 08:21:47;;;;;;;26.98;15.98;;;;;;;1.35;59.62;102169.34;5030776;28;20025;-56
2022/03/09 08:24:13;;;;;;;24.85;13.25;;;;;;;1.44;59.81;102169.94;5030943;28;20033;-57
2022/03/09 08:26:38;;;;;;;24.98;14.77;;;;;;;1.55;58.50;102175.63;5031032;28;20089;-56
2022/03/09 08:29:03;;;;;;;25.60;13.95;;;;;;;1.64;58.10;102176.19;5031184;28;20056;-57
2022/03/09 08:31:29;;;;;;;24.17;14.52;;;;;;;1.75;58.07;102176.59;5038200;28;20021;-55
2022/03/09 08:33:55;;;;;;;26.00;14.55;;;;;;;1.85;58.26;102174.28;5051164;28;20065;-56
2022/03/09 08:36:21;;;;;;;24.98;15.63;;;;;;;1.94;57.50;102175.72;5050942;28;20025;-55
2022/03/09 08:38:46;;;;;;;27.73;15.32;;;;;;;2.04;58.48;102180.69;5052777;28;20029;-57
2022/03/09 08:41:11;;;;;;;24.95;13.80;;;;;;;2.15;57.61;102181.94;5053068;28;20051;-56
2022/03/09 08:43:37;;;;;;;24.50;14.60;;;;;;;2.25;58.17;102179.56;5056509;28;20029;-54
2022/03/09 08:46:02;;;;;;;23.73;14.68;;;;;;;2.38;57.92;102178.66;5056913;28;20086;-54
2022/03/09 08:48:28;;;;;;;25.70;15.05;;;;;;;2.50;56.56;102174.16;5057281;28;20048;-55
2022/03/09 08:50:54;;;;;;;25.70;14.82;;;;;;;2.63;57.00;102177.88;5057001;28;20496;-55
2022/03/09 08:53:21;;;;;;;26.77;15.60;;;;;;;2.72;56.35;102168.38;5056855;28;20029;-56
2022/03/09 08:55:46;;;;;;;24.42;14.35;;;;;;;2.84;56.36;102178.59;5056525;28;20043;-54
2022/03/09 08:58:11;;;;;;;25.55;15.23;;;;;;;2.94;55.93;102173.47;5056953;28;20108;-55
2022/03/09 09:00:36;;;;;;;27.08;14.80;;;;;;;3.07;55.29;102173.34;5056564;28;20108;-56
2022/03/09 09:03:02;;;;;;;24.77;14.77;;;;;;;3.20;55.33;102177.03;5056578;28;20025;-57
2022/03/09 09:05:27;;;;;;;23.95;14.32;;;;;;;3.30;54.54;102171.91;5056434;28;20115;-55
2022/03/09 09:07:53;;;;;;;24.38;14.90;;;;;;;3.43;54.46;102179.16;5057068;28;20021;-56
2022/03/09 09:10:18;;;;;;;26.23;15.35;;;;;;;3.54;54.02;102172.94;5056531;28;20472;-57
2022/03/09 09:12:46;;;;;;;25.85;14.90;;;;;;;3.66;54.56;102170.28;5056395;28;20031;-56
2022/03/09 09:15:11;;;;;;;25.35;14.95;;;;;;;3.78;53.61;102175.84;5056447;28;20032;-57
2022/03/09 09:17:37;;;;;;;23.75;14.90;;;;;;;3.87;53.91;102166.25;5056313;28;20025;-57
2022/03/09 09:20:03;;;;;;;25.42;14.25;;;;;;;3.99;53.12;102168.22;5056141;28;20021;-56
2022/03/09 09:22:28;;;;;;;24.80;14.73;;;;;;;4.12;53.07;102167.22;5056153;28;20029;-56
2022/03/09 09:24:53;;;;;;;27.02;15.43;;;;;;;4.27;52.31;102161.34;5056202;28;20400;-55
2022/03/09 09:27:19;;;;;;;24.02;14.60;;;;;;;4.43;52.39;102168.09;5056488;28;20502;-55
2022/03/09 09:29:44;;;;;;;26.00;14.80;;;;;;;4.53;51.08;102165.63;5056084;28;20487;-56
2022/03/09 09:32:09;;;;;;;26.77;15.70;;;;;;;4.69;49.74;102164.16;5056334;28;20167;-56
2022/03/09 09:34:34;;;;;;;26.52;15.25;;;;;;;4.78;48.82;102165.47;5056073;28;20155;-56
2022/03/09 09:37:02;;;;;;;26.42;15.35;;;;;;;4.91;47.98;102166.34;5055946;28;20039;-56
2022/03/09 09:39:28;;;;;;;25.38;15.43;;;;;;;5.00;49.03;102165.75;5056183;28;20040;-55
2022/03/09 09:41:53;;;;;;;28.25;16.45;;;;;;;5.12;49.04;102173.19;5056254;28;20029;-56
2022/03/09 09:44:23;;;;;;;25.42;15.50;;;;;;;5.24;48.78;102163.03;5055811;28;20055;-56
2022/03/09 09:46:49;;;;;;;25.83;14.73;;;;;;;5.32;47.43;102170.09;5055974;28;20105;-56
2022/03/09 09:49:15;;;;;;;26.27;15.45;;;;;;;5.40;48.57;102166.97;5055519;28;20052;-57
2022/03/09 09:51:44;;;;;;;26.73;15.93;;;;;;;5.57;47.64;102174.50;5055814;28;20067;-56
2022/03/09 09:54:10;;;;;;;30.40;18.10;;;;;;;5.67;47.51;102163.72;5054720;28;20130;-56
2022/03/09 09:56:40;;;;;;;26.90;15.00;;;;;;;5.75;47.39;102166.13;5056048;28;20131;-57
2022/03/09 09:59:06;;;;;;;27.08;15.50;;;;;;;5.84;47.50;102163.84;5054440;28;20384;-57
2022/03/09 10:01:32;;;;;;;26.08;15.60;;;;;;;5.90;47.36;102168.34;5055401;28;20050;-57
2022/03/09 10:03:57;;;;;;;24.77;15.10;;;;;;;5.98;47.08;102161.66;5055610;28;20033;-57
2022/03/09 10:06:22;;;;;;;28.15;16.85;;;;;;;6.08;46.54;102158.34;5055349;28;20471;-56
2022/03/09 10:09:03;;;;;;;26.42;15.60;;;;;;;6.21;47.36;102157.22;5055374;28;20383;-57
2022/03/09 10:12:01;;;;;;;27.40;16.60;;;;;;;6.29;46.90;102158.72;5053695;28;20060;-57
2022/03/09 10:14:50;;;;;;;26.98;16.88;;;;;;;6.38;47.32;102151.75;5055078;28;20116;-57
2022/03/09 10:17:17;;;;;;;27.40;16.77;;;;;;;6.59;45.54;102160.38;5055472;28;20033;-57
2022/03/09 10:19:50;;;;;;;27.50;16.55;;;;;;;6.67;45.42;102152.59;5055081;28;20029;-57
2022/03/09 10:22:32;;;;;;;27.70;16.85;;;;;;;6.75;46.31;102147.75;5055088;28;20483;-57
2022/03/09 10:25:17;;;;;;;26.77;16.40;;;;;;;6.85;46.63;102150.69;5055503;28;20025;-57
2022/03/09 10:27:51;;;;;;;27.95;16.35;;;;;;;6.93;45.34;102147.50;5055372;28;20040;-57
2022/03/09 10:30:21;;;;;;;29.77;17.42;;;;;;;7.06;44.90;102145.53;5054995;28;20381;-57
2022/03/09 10:32:52;;;;;;;27.83;17.35;;;;;;;7.16;45.68;102142.94;5054831;28;20033;-54
2022/03/09 10:35:34;;;;;;;26.23;16.42;;;;;;;7.18;45.13;102132.50;5055006;28;20111;-55
2022/03/09 10:38:23;;;;;;;28.33;18.48;;;;;;;7.28;46.12;102132.66;5054816;28;20029;-57
2022/03/09 10:40:52;;;;;;;27.92;16.70;;;;;;;7.39;44.80;102138.31;5054807;28;20474;-56
2022/03/09 10:43:23;;;;;;;26.27;16.58;;;;;;;7.43;45.18;102132.03;5054686;28;20024;-56
2022/03/09 10:46:00;;;;;;;27.15;16.83;;;;;;;7.58;45.87;102136.13;5054633;28;20033;-55
2022/03/09 10:48:27;;;;;;;27.17;16.83;;;;;;;7.67;44.42;102130.97;5054441;28;20028;-54
2022/03/09 10:50:54;;;;;;;28.63;17.33;;;;;;;7.73;43.95;102133.56;5054568;28;20472;-56
2022/03/09 10:53:20;;;;;;;27.13;16.67;;;;;;;7.80;44.33;102134.19;5054512;28;20040;-55
2022/03/09 10:55:45;;;;;;;27.55;17.27;;;;;;;7.94;43.73;102129.13;5054361;28;20069;-54
2022/03/09 10:58:21;;;;;;;27.98;17.60;;;;;;;8.08;44.78;102137.03;5054351;28;20102;-55
2022/03/09 11:00:51;;;;;;;26.92;16.77;;;;;;;8.13;43.76;102131.56;5054565;28;20090;-55
2022/03/09 11:03:18;;;;;;;28.10;18.42;;;;;;;8.17;43.27;102138.22;5054488;28;20422;-56
2022/03/09 11:05:51;;;;;;;30.88;18.58;;;;;;;8.25;43.58;102143.28;5054258;28;20099;-56
2022/03/09 11:08:17;;;;;;;27.63;17.77;;;;;;;8.34;43.59;102134.53;5054276;28;20033;-56